Time;durP1;ratioP1;P1;durP2;ratioP2;P2;SDS_P1;SDS_P2;PMS_P1;PMS_P2;Temp;Humidity;BMP_temperature;BMP_pressure;BME280_temperature;BME280_humidity;BME280_pressure;Samples;Min_cycle;Max_cycle;Signal;HPM_P1;HPM_P2
2023/10/02 03:02:24;;;;;;;14.75;5.28;;;18.30;79.20;;;;;;5155982;23;20064;-91
2023/10/02 03:04:53;;;;;;;17.25;5.57;;;18.30;79.20;;;;;;5037190;28;20037;-90
2023/10/02 03:07:36;;;;;;;21.05;5.55;;;18.30;79.20;;;;;;5057303;28;20768;-90
2023/10/02 03:10:02;;;;;;;18.52;5.57;;;18.30;79.20;;;;;;5039182;28;20028;-90
2023/10/02 03:12:28;;;;;;;18.08;5.78;;;18.30;79.20;;;;;;5056034;28;20025;-90
2023/10/02 03:14:55;;;;;;;14.23;5.15;;;18.30;79.20;;;;;;5038477;28;20466;-89
2023/10/02 03:17:30;;;;;;;15.15;4.85;;;18.30;79.20;;;;;;5040844;28;20025;-91
2023/10/02 03:19:58;;;;;;;13.60;5.00;;;18.20;79.10;;;;;;5057919;28;20071;-90
2023/10/02 03:22:24;;;;;;;16.02;5.75;;;18.20;79.10;;;;;;5057331;28;20029;-92
2023/10/02 03:24:53;;;;;;;14.00;5.45;;;18.20;79.10;;;;;;5061530;28;20029;-92
2023/10/02 03:27:21;;;;;;;14.60;6.03;;;18.30;79.10;;;;;;5038505;28;20487;-90
2023/10/02 03:29:50;;;;;;;21.48;5.50;;;18.20;79.10;;;;;;5058866;28;20021;-91
2023/10/02 03:32:16;;;;;;;15.50;5.32;;;18.20;79.10;;;;;;5042081;28;20024;-90
2023/10/02 03:34:48;;;;;;;20.08;6.22;;;18.30;79.10;;;;;;5042457;28;20024;-92
2023/10/02 03:37:15;;;;;;;14.82;5.00;;;18.20;79.00;;;;;;5048191;28;20044;-91
2023/10/02 03:39:52;;;;;;;17.42;5.63;;;18.20;79.00;;;;;;5043590;28;20049;-90
2023/10/02 03:42:31;;;;;;;27.42;6.03;;;18.20;79.00;;;;;;5055285;28;20021;-91
2023/10/02 03:44:58;;;;;;;17.15;5.30;;;18.20;79.00;;;;;;5043253;28;20038;-90
2023/10/02 03:47:30;;;;;;;19.63;5.93;;;18.30;79.00;;;;;;5042900;28;20025;-89
2023/10/02 03:50:00;;;;;;;14.82;5.15;;;18.20;79.00;;;;;;5036479;28;20200;-89
2023/10/02 03:52:28;;;;;;;13.05;5.15;;;18.20;79.00;;;;;;5041787;28;20026;-89
2023/10/02 03:54:55;;;;;;;13.38;4.90;;;18.20;79.00;;;;;;5065419;28;20131;-89
2023/10/02 04:00:27;;;;;;;14.52;4.90;;;18.20;78.90;;;;;;5061298;28;20060;-90
2023/10/02 04:02:56;;;;;;;19.45;5.85;;;18.20;78.90;;;;;;5044508;28;20040;-89
2023/10/02 04:05:32;;;;;;;19.95;6.05;;;18.20;78.90;;;;;;5039622;28;20025;-90
2023/10/02 04:08:22;;;;;;;14.93;5.32;;;18.20;78.90;;;;;;5041283;28;20500;-89
2023/10/02 04:10:55;;;;;;;13.50;5.20;;;18.20;78.90;;;;;;5040623;28;20029;-90
2023/10/02 04:13:32;;;;;;;13.98;5.20;;;18.20;78.90;;;;;;5041451;28;20300;-90
2023/10/02 04:19:02;;;;;;;17.77;5.68;;;18.20;78.80;;;;;;5058720;28;20094;-88
2023/10/02 04:21:29;;;;;;;21.00;5.88;;;18.20;78.80;;;;;;5038026;28;20017;-90
2023/10/02 04:23:56;;;;;;;17.52;5.40;;;18.20;78.80;;;;;;5046192;28;20111;-90
2023/10/02 04:26:23;;;;;;;20.45;5.75;;;18.20;78.80;;;;;;5044475;28;20024;-89
2023/10/02 04:28:59;;;;;;;13.90;5.38;;;18.20;78.80;;;;;;5041948;28;20025;-89
2023/10/02 04:31:30;;;;;;;17.90;5.32;;;18.20;78.80;;;;;;5041120;28;20063;-90
2023/10/02 04:36:42;;;;;;;21.63;5.78;;;18.20;78.70;;;;;;5061895;28;20040;-89
2023/10/02 04:39:51;;;;;;;11.32;4.60;;;18.20;78.70;;;;;;5041449;28;20107;-89
2023/10/02 04:44:44;;;;;;;12.38;5.45;;;18.20;78.70;;;;;;5056902;28;20036;-89
2023/10/02 04:47:19;;;;;;;;;;;18.20;78.70;;;;;;5058071;28;20028;-89
2023/10/02 04:52:53;;;;;;;18.48;5.93;;;18.10;78.60;;;;;;5059489;28;20044;-89
2023/10/02 04:55:22;;;;;;;14.85;5.97;;;18.20;78.60;;;;;;5059231;28;20545;-90
2023/10/02 04:57:50;;;;;;;16.55;6.40;;;18.20;78.60;;;;;;5039486;28;20032;-89
2023/10/02 05:00:35;;;;;;;17.20;6.03;;;18.20;78.60;;;;;;5046468;28;20434;-89
2023/10/02 05:03:49;;;;;;;11.43;4.68;;;18.20;78.60;;;;;;5040536;28;20036;-90
2023/10/02 05:05:58;;;;;;;23.27;5.38;;;18.10;78.50;;;;;;5037538;28;20030;-89
2023/10/02 05:08:41;;;;;;;17.00;5.60;;;18.10;78.40;;;;;;5035732;28;20036;-89
2023/10/02 05:11:19;;;;;;;13.45;4.78;;;18.10;78.50;;;;;;5008278;28;20029;-88
2023/10/02 05:16:46;;;;;;;25.23;5.70;;;18.10;78.40;;;;;;5035637;28;20029;-89
2023/10/02 05:19:14;;;;;;;17.35;5.60;;;18.10;78.40;;;;;;5035812;28;20049;-89
2023/10/02 05:21:50;;;;;;;19.00;6.07;;;18.20;78.40;;;;;;5013048;28;20075;-89
2023/10/02 05:24:17;;;;;;;19.85;5.60;;;18.10;78.30;;;;;;5023196;28;20121;-88
2023/10/02 05:26:44;;;;;;;16.75;5.32;;;18.10;78.30;;;;;;5021963;28;20025;-88
2023/10/02 05:29:17;;;;;;;20.27;5.88;;;18.10;78.30;;;;;;5022397;28;20017;-89
2023/10/02 05:31:49;;;;;;;19.65;6.03;;;18.10;78.30;;;;;;5021634;28;20105;-89
2023/10/02 05:34:21;;;;;;;15.75;5.65;;;18.10;78.30;;;;;;5018423;28;20060;-90
2023/10/02 05:39:31;;;;;;;13.98;5.15;;;18.10;78.30;;;;;;5034575;28;20076;-90
2023/10/02 05:42:05;;;;;;;16.92;6.10;;;18.10;78.30;;;;;;5021036;28;20060;-90
2023/10/02 05:44:36;;;;;;;19.15;6.57;;;18.10;78.30;;;;;;5034218;28;20141;-90
2023/10/02 05:47:06;;;;;;;23.15;6.18;;;18.10;78.20;;;;;;5023009;28;20036;-90
2023/10/02 05:49:48;;;;;;;12.70;5.10;;;18.10;78.30;;;;;;5019813;28;20029;-90
2023/10/02 05:52:14;;;;;;;15.63;5.53;;;18.10;78.30;;;;;;5006319;28;20037;-90
2023/10/02 05:54:47;;;;;;;15.07;5.47;;;18.10;78.30;;;;;;5025132;28;20508;-90
2023/10/02 05:57:14;;;;;;;14.55;5.60;;;18.10;78.20;;;;;;5024234;28;20029;-90
2023/10/02 05:59:54;;;;;;;23.15;6.32;;;18.10;78.20;;;;;;5026445;28;20078;-90
2023/10/02 06:02:23;;;;;;;17.92;6.05;;;18.10;78.20;;;;;;5048914;28;20086;-89
2023/10/02 06:04:54;;;;;;;15.38;5.82;;;18.10;78.20;;;;;;5042246;28;20032;-89
2023/10/02 06:07:40;;;;;;;19.70;5.68;;;18.10;78.20;;;;;;5060401;28;20024;-89
2023/10/02 06:10:24;;;;;;;19.17;5.10;;;18.10;78.20;;;;;;5041381;28;20526;-90
2023/10/02 06:12:55;;;;;;;14.07;5.22;;;18.10;78.20;;;;;;5044476;28;20472;-90
2023/10/02 06:18:07;;;;;;;20.42;6.07;;;18.90;78.70;;;;;;5064532;28;20059;-90
2023/10/02 06:20:33;;;;;;;17.40;5.47;;;18.10;78.20;;;;;;5041997;28;20048;-90
2023/10/02 06:23:19;;;;;;;13.85;5.50;;;18.10;78.20;;;;;;5043165;28;20025;-90
2023/10/02 06:25:46;;;;;;;12.80;5.28;;;18.10;78.20;;;;;;5052009;28;20029;-89
2023/10/02 06:28:25;;;;;;;17.17;5.75;;;18.10;78.20;;;;;;5058666;28;20021;-90
2023/10/02 06:30:51;;;;;;;21.77;5.43;;;18.10;78.20;;;;;;5042611;28;20064;-90
2023/10/02 06:33:21;;;;;;;15.07;5.93;;;18.10;78.20;;;;;;5053796;28;20047;-89
2023/10/02 06:36:03;;;;;;;14.95;5.57;;;18.10;78.20;;;;;;5059980;28;20047;-89
2023/10/02 06:38:30;;;;;;;17.48;5.15;;;18.10;78.10;;;;;;5053563;28;20032;-90
2023/10/02 06:40:56;;;;;;;26.90;6.05;;;18.10;78.10;;;;;;5041198;28;20082;-90
2023/10/02 06:43:32;;;;;;;19.65;6.15;;;18.10;78.10;;;;;;5040831;28;20009;-89
2023/10/02 06:46:16;;;;;;;23.00;5.65;;;18.10;78.10;;;;;;5055243;28;20033;-91
2023/10/02 06:48:54;;;;;;;24.13;6.50;;;18.10;78.10;;;;;;5053621;28;20099;-91
2023/10/02 06:51:20;;;;;;;20.00;6.13;;;18.10;78.00;;;;;;5045571;28;20028;-89
2023/10/02 06:53:46;;;;;;;20.20;7.00;;;18.10;78.00;;;;;;5039576;28;20132;-90
2023/10/02 06:56:12;;;;;;;21.63;6.25;;;18.30;78.20;;;;;;5043143;28;20619;-89
2023/10/02 06:58:57;;;;;;;11.68;5.05;;;18.10;78.00;;;;;;5060807;28;20088;-89
2023/10/02 07:01:27;;;;;;;19.00;5.78;;;18.10;78.10;;;;;;5041510;28;20465;-89
2023/10/02 07:03:56;;;;;;;21.13;6.53;;;18.10;78.00;;;;;;5045473;28;20025;-88
2023/10/02 07:06:25;;;;;;;17.20;6.70;;;18.10;78.10;;;;;;5051891;28;20021;-91
2023/10/02 07:09:10;;;;;;;17.23;6.93;;;18.20;78.90;;;;;;5054910;28;20540;-90
2023/10/02 07:11:42;;;;;;;21.17;7.07;;;18.20;78.20;;;;;;5058857;28;20029;-90
2023/10/02 07:14:09;;;;;;;16.65;6.10;;;18.20;78.30;;;;;;5061703;28;20059;-90
2023/10/02 07:16:35;;;;;;;19.52;6.70;;;18.20;78.20;;;;;;5056300;28;20029;-90
2023/10/02 07:19:01;;;;;;;16.75;6.03;;;18.20;78.30;;;;;;5060482;28;20017;-90
2023/10/02 07:21:30;;;;;;;16.23;6.28;;;18.20;78.30;;;;;;5034133;28;20743;-90
2023/10/02 07:23:58;;;;;;;21.60;6.75;;;18.20;78.30;;;;;;5041825;28;20052;-90
2023/10/02 07:29:08;;;;;;;18.00;6.55;;;18.20;78.30;;;;;;5059629;28;20035;-90
2023/10/02 07:31:34;;;;;;;17.08;6.53;;;18.20;78.40;;;;;;5043112;28;20033;-90
2023/10/02 07:34:01;;;;;;;22.42;6.28;;;18.20;78.40;;;;;;5043041;28;20029;-89
2023/10/02 07:36:27;;;;;;;17.00;6.25;;;18.20;78.40;;;;;;5043008;28;20023;-89
2023/10/02 07:38:53;;;;;;;20.55;7.00;;;18.20;78.40;;;;;;5041567;28;20099;-91
2023/10/02 07:41:25;;;;;;;17.50;6.93;;;18.30;78.50;;;;;;5044133;28;20049;-90
2023/10/02 07:44:07;;;;;;;15.00;6.18;;;18.30;78.50;;;;;;5044523;28;20101;-89
2023/10/02 07:46:36;;;;;;;17.38;5.40;;;18.20;78.50;;;;;;5043233;28;20463;-91
2023/10/02 07:49:04;;;;;;;17.42;5.80;;;18.20;78.50;;;;;;5062628;28;20108;-90
2023/10/02 07:51:35;;;;;;;19.50;6.10;;;18.30;78.60;;;;;;5056146;28;20035;-90
2023/10/02 07:54:13;;;;;;;19.48;7.18;;;18.20;79.30;;;;;;5042570;28;20037;-90
2023/10/02 07:56:40;;;;;;;17.20;6.47;;;18.20;78.60;;;;;;5058951;28;20024;-89
2023/10/02 07:59:07;;;;;;;18.23;7.10;;;18.30;78.70;;;;;;5037184;28;20025;-90
2023/10/02 08:01:33;;;;;;;15.20;6.63;;;18.30;78.80;;;;;;5039225;28;20033;-90
2023/10/02 08:04:01;;;;;;;17.42;6.65;;;18.30;78.70;;;;;;5045294;28;20092;-90
2023/10/02 08:11:50;;;;;;;17.02;6.65;;;18.30;78.80;;;;;;5042736;28;20489;-90
2023/10/02 08:17:00;;;;;;;20.42;6.03;;;18.30;78.90;;;;;;5042704;28;20036;-90
2023/10/02 08:19:27;;;;;;;18.65;6.55;;;18.30;78.90;;;;;;5042657;28;20021;-90
2023/10/02 08:21:53;;;;;;;15.52;6.15;;;18.30;78.90;;;;;;5027973;28;20029;-90
2023/10/02 08:24:19;;;;;;;19.08;6.70;;;18.30;79.00;;;;;;5024517;28;20029;-92
2023/10/02 08:26:45;;;;;;;16.58;7.03;;;18.30;79.00;;;;;;5025079;28;20043;-90
2023/10/02 08:29:13;;;;;;;19.10;7.32;;;18.30;79.00;;;;;;5021915;28;20029;-93
2023/10/02 08:31:44;;;;;;;17.40;7.07;;;18.30;79.10;;;;;;5039422;28;20021;-93
2023/10/02 08:34:27;;;;;;;17.45;6.40;;;18.30;79.10;;;;;;5022105;28;20168;-91
2023/10/02 08:37:07;;;;;;;20.98;7.80;;;18.30;79.10;;;;;;5006315;28;20438;-90
2023/10/02 08:39:36;;;;;;;17.98;6.20;;;18.30;79.20;;;;;;5029757;28;20037;-89
2023/10/02 08:42:09;;;;;;;19.25;6.13;;;18.30;79.30;;;;;;5020312;28;20102;-93
2023/10/02 08:44:40;;;;;;;17.92;6.35;;;18.30;79.30;;;;;;5037774;28;20030;-93
2023/10/02 08:47:06;;;;;;;18.90;7.10;;;18.30;79.30;;;;;;5021472;28;20026;-92
2023/10/02 08:49:34;;;;;;;21.33;8.35;;;18.30;79.40;;;;;;5026321;28;20021;-92
2023/10/02 08:52:03;;;;;;;17.42;6.95;;;18.40;79.50;;;;;;5020918;28;20029;-90
2023/10/02 08:54:31;;;;;;;24.00;7.38;;;18.40;79.60;;;;;;5027788;28;20071;-93
2023/10/02 08:57:08;;;;;;;27.73;8.48;;;18.40;79.60;;;;;;5033401;28;20116;-91
2023/10/02 08:59:41;;;;;;;20.05;6.70;;;18.40;79.70;;;;;;5028337;28;20032;-81
2023/10/02 09:02:16;;;;;;;25.58;8.18;;;18.40;80.00;;;;;;5044038;28;20037;-85
2023/10/02 09:04:55;;;;;;;24.05;8.20;;;18.40;81.80;;;;;;5052683;28;20074;-82
2023/10/02 09:10:28;;;;;;;22.67;7.85;;;18.30;84.80;;;;;;5051890;28;20328;-82
2023/10/02 09:13:14;;;;;;;32.75;10.27;;;18.30;85.20;;;;;;5052516;28;20035;-84
2023/10/02 09:15:45;;;;;;;28.75;7.65;;;18.40;86.00;;;;;;5056928;28;20024;-85
2023/10/02 09:19:07;;;;;;;18.40;8.15;;;18.40;86.70;;;;;;5051817;28;20033;-84
2023/10/02 09:21:22;;;;;;;;;;;18.40;87.30;;;;;;5055440;28;20055;-82
2023/10/02 09:23:51;;;;;;;30.33;8.57;;;18.40;87.60;;;;;;5052365;28;20003;-82
2023/10/02 09:26:17;;;;;;;19.73;7.30;;;18.40;87.70;;;;;;5055500;28;20111;-84
2023/10/02 09:28:56;;;;;;;28.63;9.85;;;18.40;88.80;;;;;;5058091;28;20099;-83
2023/10/02 09:31:24;;;;;;;24.33;9.20;;;18.40;88.10;;;;;;5052602;28;20036;-83
2023/10/02 09:33:51;;;;;;;24.05;9.65;;;18.40;88.20;;;;;;5055108;28;20073;-81
2023/10/02 09:36:34;;;;;;;21.42;8.48;;;18.40;88.40;;;;;;5058842;28;20074;-82
2023/10/02 09:39:31;;;;;;;27.20;8.70;;;18.40;89.00;;;;;;5050417;28;20035;-83
2023/10/02 09:42:06;;;;;;;26.38;9.73;;;18.40;88.90;;;;;;5050651;28;20527;-84
2023/10/02 09:44:40;;;;;;;26.50;9.48;;;18.50;89.50;;;;;;5055307;28;20489;-83
2023/10/02 09:47:07;;;;;;;31.90;9.57;;;18.50;90.00;;;;;;5051668;28;20511;-82
2023/10/02 09:49:47;;;;;;;31.33;8.38;;;18.50;90.10;;;;;;5056997;28;20049;-83
2023/10/02 09:52:23;;;;;;;22.17;8.30;;;18.50;90.30;;;;;;5051164;28;20017;-81
2023/10/02 09:55:33;;;;;;;27.02;9.15;;;18.50;90.30;;;;;;5035434;28;20502;-82
2023/10/02 09:58:03;;;;;;;24.30;8.63;;;18.50;90.10;;;;;;4984228;28;20133;-83
2023/10/02 10:00:37;;;;;;;24.92;9.35;;;18.60;90.50;;;;;;4983849;28;20546;-83
2023/10/02 10:03:47;;;;;;;24.52;9.15;;;18.60;90.60;;;;;;4985105;28;20543;-82
2023/10/02 10:06:24;;;;;;;24.63;8.73;;;18.60;90.80;;;;;;4918073;29;20043;-83
2023/10/02 10:11:45;;;;;;;25.33;9.15;;;18.70;91.00;;;;;;4922804;29;20047;-82
2023/10/02 10:14:40;;;;;;;37.17;11.25;;;18.70;91.30;;;;;;4916786;29;20092;-82
2023/10/02 10:17:15;;;;;;;34.55;10.75;;;18.80;91.20;;;;;;4916265;29;20055;-83
2023/10/02 10:20:18;;;;;;;29.67;8.40;;;18.80;91.30;;;;;;4904524;29;20098;-82
2023/10/02 10:22:51;;;;;;;27.85;10.02;;;18.80;91.60;;;;;;4916311;29;20059;-81
2023/10/02 10:30:38;;;;;;;28.88;10.32;;;18.90;91.70;;;;;;4920125;29;20536;-85
2023/10/02 10:35:48;;;;;;;37.00;10.30;;;18.90;92.10;;;;;;4956136;28;20047;-82
2023/10/02 10:38:25;;;;;;;27.27;9.57;;;19.00;92.10;;;;;;4956188;28;20073;-84
2023/10/02 10:41:14;;;;;;;37.83;10.95;;;19.00;92.20;;;;;;4974875;28;20149;-83
2023/10/02 10:46:21;;;;;;;33.45;10.00;;;19.10;92.40;;;;;;5060700;28;20115;-85
2023/10/02 10:49:07;;;;;;;30.42;9.27;;;19.20;92.70;;;;;;5058946;28;20045;-84
2023/10/02 10:51:37;;;;;;;27.77;10.73;;;19.20;92.70;;;;;;5059378;28;20523;-82
2023/10/02 10:54:13;;;;;;;;;;;19.30;92.30;;;;;;5060845;28;20037;-82
2023/10/02 10:56:46;;;;;;;29.90;10.65;;;19.30;92.70;;;;;;5050877;28;19943;-85
2023/10/02 10:59:12;;;;;;;28.35;10.73;;;19.30;92.70;;;;;;5055969;28;20028;-81
2023/10/02 11:02:15;;;;;;;24.85;9.60;;;19.40;92.70;;;;;;5056998;28;20408;-81
2023/10/02 11:04:48;;;;;;;25.08;8.95;;;19.40;93.00;;;;;;5052869;28;20048;-84
2023/10/02 11:07:23;;;;;;;32.58;10.40;;;19.40;92.90;;;;;;5056145;28;20027;-81
2023/10/02 11:10:15;;;;;;;30.52;9.38;;;19.50;92.90;;;;;;5059587;28;20025;-85
2023/10/02 11:12:54;;;;;;;35.30;9.60;;;19.60;92.90;;;;;;5054171;28;20021;-82
2023/10/02 11:18:18;;;;;;;39.70;10.52;;;19.60;92.80;;;;;;5054341;28;20081;-83
2023/10/02 11:20:49;;;;;;;28.77;10.98;;;19.60;92.70;;;;;;5055628;28;20423;-82
2023/10/02 11:23:23;;;;;;;31.05;10.57;;;19.70;92.80;;;;;;5062663;28;20485;-82
2023/10/02 11:25:54;;;;;;;35.85;10.65;;;19.80;92.90;;;;;;5055778;28;20067;-85
2023/10/02 11:28:31;;;;;;;32.22;10.35;;;19.80;93.00;;;;;;5059536;28;20591;-82
2023/10/02 11:31:35;;;;;;;36.17;11.60;;;19.80;92.90;;;;;;5058441;28;20067;-82
2023/10/02 11:34:08;;;;;;;33.15;10.85;;;19.80;92.80;;;;;;5054638;28;20794;-82
2023/10/02 11:36:37;;;;;;;26.77;9.90;;;19.90;92.80;;;;;;5055761;28;20157;-82
2023/10/02 11:39:16;;;;;;;38.03;11.43;;;19.90;92.90;;;;;;5055047;28;20038;-81
2023/10/02 11:41:43;;;;;;;33.88;11.13;;;20.00;92.80;;;;;;5054007;28;20104;-83
2023/10/02 11:44:12;;;;;;;34.10;10.55;;;20.00;92.70;;;;;;5060240;28;20492;-86
2023/10/02 11:46:40;;;;;;;29.27;10.55;;;20.00;92.60;;;;;;5053191;28;20257;-83
2023/10/02 11:49:06;;;;;;;39.40;12.23;;;20.00;92.60;;;;;;5055081;28;20086;-83
2023/10/02 11:51:33;;;;;;;40.05;11.70;;;20.10;92.50;;;;;;5054557;28;20025;-83
2023/10/02 11:53:59;;;;;;;35.90;11.55;;;20.10;92.30;;;;;;5051790;28;20040;-83
2023/10/02 11:56:26;;;;;;;33.03;10.82;;;20.10;92.20;;;;;;5056470;28;20075;-83
2023/10/02 11:58:52;;;;;;;34.63;11.20;;;20.10;92.50;;;;;;5059927;28;20020;-83
2023/10/02 12:01:22;;;;;;;36.88;11.50;;;20.10;92.50;;;;;;5055499;28;20602;-82
2023/10/02 12:03:51;;;;;;;47.13;12.52;;;20.20;92.30;;;;;;5057803;28;20533;-83
2023/10/02 12:06:17;;;;;;;43.95;13.55;;;20.20;92.10;;;;;;5057195;28;20029;-83
2023/10/02 12:08:49;;;;;;;39.10;11.23;;;20.20;92.20;;;;;;5052908;28;20064;-83
2023/10/02 12:11:14;;;;;;;40.15;13.35;;;20.20;92.40;;;;;;5057097;28;20049;-83
2023/10/02 12:13:42;;;;;;;37.92;11.52;;;20.30;92.60;;;;;;5045378;28;20064;-81
2023/10/02 12:16:13;;;;;;;36.25;12.95;;;20.30;92.50;;;;;;5051668;28;20049;-82
2023/10/02 12:18:40;;;;;;;27.00;9.75;;;20.30;92.60;;;;;;5053881;28;20413;-84
2023/10/02 12:21:12;;;;;;;42.17;11.85;;;20.30;92.80;;;;;;5059841;28;20455;-83
2023/10/02 12:23:44;;;;;;;32.33;11.55;;;20.40;92.60;;;;;;5055139;28;20452;-82
2023/10/02 12:26:16;;;;;;;39.60;11.32;;;20.40;92.50;;;;;;5055014;28;20028;-82
2023/10/02 12:28:42;;;;;;;34.38;11.70;;;20.40;92.70;;;;;;5057277;28;20016;-82
2023/10/02 12:31:15;;;;;;;37.50;12.32;;;20.40;92.60;;;;;;5053812;28;20075;-82
2023/10/02 12:33:45;;;;;;;41.17;12.40;;;20.40;92.40;;;;;;5056000;28;20052;-82
2023/10/02 12:36:17;;;;;;;47.28;13.57;;;20.50;92.70;;;;;;5049254;28;20039;-83
2023/10/02 12:38:47;;;;;;;45.63;14.02;;;20.50;92.80;;;;;;5051995;28;20029;-83
2023/10/02 12:41:42;;;;;;;45.63;12.32;;;20.50;92.80;;;;;;5058135;28;20542;-83
2023/10/02 12:44:09;;;;;;;40.50;12.57;;;20.50;92.60;;;;;;4985469;28;20042;-83
2023/10/02 12:46:43;;;;;;;50.28;14.65;;;20.60;92.30;;;;;;4987792;28;20761;-84
2023/10/02 12:49:09;;;;;;;51.60;14.13;;;20.50;92.30;;;;;;4987628;28;20039;-86
2023/10/02 12:51:34;;;;;;;43.88;12.93;;;20.60;92.30;;;;;;4987816;28;20030;-83
2023/10/02 12:54:00;;;;;;;43.88;13.77;;;20.60;92.30;;;;;;4987696;28;20072;-84
2023/10/02 12:56:26;;;;;;;45.08;13.60;;;20.60;92.30;;;;;;4985504;28;20054;-82
2023/10/02 12:58:55;;;;;;;40.17;12.90;;;20.60;92.10;;;;;;4985252;28;20022;-82
2023/10/02 13:01:27;;;;;;;50.53;14.07;;;20.60;92.20;;;;;;4986773;28;20519;-82
2023/10/02 13:03:54;;;;;;;39.53;13.23;;;20.60;92.30;;;;;;4987659;28;20386;-84
2023/10/02 13:06:21;;;;;;;54.05;15.98;;;20.70;92.10;;;;;;4986659;28;20096;-82
2023/10/02 13:08:47;;;;;;;46.53;13.43;;;20.70;91.90;;;;;;4985408;28;20049;-84
2023/10/02 13:11:18;;;;;;;57.65;16.40;;;20.70;91.80;;;;;;4985383;28;20069;-83
2023/10/02 13:13:46;;;;;;;59.58;15.32;;;20.70;91.70;;;;;;4984541;28;20141;-82
2023/10/02 13:16:15;;;;;;;39.42;13.13;;;20.70;91.60;;;;;;4987237;28;20038;-83
2023/10/02 13:18:43;;;;;;;45.28;14.35;;;20.70;91.80;;;;;;4986590;28;20459;-82
2023/10/02 13:21:10;;;;;;;49.75;14.60;;;20.80;91.50;;;;;;5039228;28;20121;-83
2023/10/02 13:23:36;;;;;;;59.92;16.15;;;20.80;91.20;;;;;;5057055;28;20034;-83
2023/10/02 13:26:09;;;;;;;46.53;15.35;;;20.80;91.20;;;;;;5055427;28;20058;-84
2023/10/02 13:28:35;;;;;;;53.65;15.95;;;20.70;91.30;;;;;;5053010;28;20111;-84
2023/10/02 13:31:12;;;;;;;50.45;16.40;;;20.80;91.60;;;;;;5057088;28;20035;-82
2023/10/02 13:33:40;;;;;;;48.38;13.95;;;20.80;91.30;;;;;;5048268;28;20071;-84
2023/10/02 13:36:07;;;;;;;55.38;15.13;;;20.70;91.20;;;;;;5054740;28;20068;-84
2023/10/02 13:38:36;;;;;;;58.50;16.83;;;20.80;91.10;;;;;;5057349;28;20027;-84
2023/10/02 13:41:12;;;;;;;49.33;16.65;;;20.80;91.20;;;;;;5051384;28;20021;-81
2023/10/02 13:43:41;;;;;;;46.67;14.25;;;20.80;90.90;;;;;;5055262;28;20049;-83
2023/10/02 13:46:11;;;;;;;46.97;15.03;;;20.70;91.00;;;;;;5055016;28;20044;-83
2023/10/02 13:48:38;;;;;;;53.00;16.23;;;20.80;91.20;;;;;;5050795;28;20048;-84
2023/10/02 13:51:07;;;;;;;50.83;15.30;;;20.70;91.50;;;;;;5054012;28;20033;-82
2023/10/02 13:53:34;;;;;;;48.20;15.23;;;20.80;91.00;;;;;;5057019;28;20017;-82
2023/10/02 13:56:09;;;;;;;51.22;15.65;;;20.80;90.90;;;;;;5053321;28;20051;-83
2023/10/02 13:58:39;;;;;;;53.72;15.75;;;20.80;91.00;;;;;;5054694;28;20039;-82
2023/10/02 14:01:08;;;;;;;47.45;17.00;;;20.80;90.80;;;;;;5050986;28;20022;-83
2023/10/02 14:03:35;;;;;;;52.75;16.98;;;20.70;90.60;;;;;;5051880;28;20657;-86
2023/10/02 14:06:08;;;;;;;50.25;14.77;;;20.80;90.60;;;;;;5061457;28;20040;-82
2023/10/02 14:08:35;;;;;;;50.78;15.23;;;20.80;90.60;;;;;;5051411;28;20060;-83
2023/10/02 14:11:03;;;;;;;55.95;16.23;;;20.80;90.70;;;;;;5052424;28;20044;-84
2023/10/02 14:13:30;;;;;;;45.47;13.77;;;20.70;90.70;;;;;;5056608;28;20026;-81
2023/10/02 14:15:55;;;;;;;53.33;15.77;;;20.70;90.80;;;;;;5056414;28;20083;-83
2023/10/02 14:18:24;;;;;;;44.33;15.15;;;20.80;90.70;;;;;;5051724;28;20029;-83
2023/10/02 14:21:07;;;;;;;57.63;15.93;;;20.70;90.60;;;;;;5056862;28;20100;-83
2023/10/02 14:23:34;;;;;;;55.58;17.92;;;20.70;90.50;;;;;;5047671;28;20022;-83
2023/10/02 14:26:01;;;;;;;41.83;14.88;;;20.70;90.60;;;;;;5054438;28;20029;-83
2023/10/02 14:28:30;;;;;;;63.35;17.77;;;20.70;90.70;;;;;;5057615;28;20040;-82
2023/10/02 14:30:56;;;;;;;45.33;14.68;;;20.80;90.70;;;;;;5053252;28;20368;-85
2023/10/02 14:33:23;;;;;;;56.00;16.98;;;20.80;90.60;;;;;;5051314;28;20129;-81
2023/10/02 14:35:52;;;;;;;48.72;15.02;;;20.80;90.30;;;;;;5057953;28;20033;-83
2023/10/02 14:38:17;;;;;;;57.38;17.77;;;20.80;90.30;;;;;;5050421;28;20554;-83
2023/10/02 14:40:43;;;;;;;50.13;16.25;;;20.80;90.50;;;;;;5054287;28;20025;-82
2023/10/02 14:43:11;;;;;;;55.45;17.50;;;20.80;90.60;;;;;;5056989;28;20039;-83
2023/10/02 14:45:38;;;;;;;52.00;14.65;;;20.70;90.60;;;;;;5050237;28;20036;-83
2023/10/02 14:48:04;;;;;;;57.03;17.27;;;20.70;90.60;;;;;;5053149;28;20078;-83
2023/10/02 14:50:34;;;;;;;63.17;18.90;;;20.70;90.60;;;;;;5055275;28;20029;-83
2023/10/02 14:52:59;;;;;;;54.05;17.02;;;21.10;90.80;;;;;;5051307;28;20023;-83
2023/10/02 14:55:27;;;;;;;60.75;17.90;;;20.80;90.70;;;;;;5051957;28;20203;-81
2023/10/02 14:57:53;;;;;;;55.92;18.15;;;20.80;90.20;;;;;;5054984;28;20116;-83
2023/10/02 15:00:23;;;;;;;59.70;17.77;;;20.80;90.00;;;;;;5050235;28;20104;-83
2023/10/02 15:02:54;;;;;;;56.25;17.55;;;20.80;90.00;;;;;;5053183;28;20120;-82
2023/10/02 15:05:22;;;;;;;47.67;15.93;;;20.70;90.00;;;;;;5058149;28;20911;-83
2023/10/02 15:07:51;;;;;;;55.65;17.63;;;20.80;90.10;;;;;;5051387;28;20111;-83
2023/10/02 15:10:17;;;;;;;51.92;16.30;;;20.80;90.40;;;;;;5054153;28;20477;-83
2023/10/02 15:12:44;;;;;;;47.70;15.75;;;20.80;90.30;;;;;;5060837;28;20028;-81
2023/10/02 15:15:14;;;;;;;59.47;18.10;;;20.80;90.10;;;;;;5056373;28;20031;-83
2023/10/02 15:17:41;;;;;;;57.15;16.48;;;20.70;90.10;;;;;;5061051;28;20020;-83
2023/10/02 15:20:12;;;;;;;64.32;17.95;;;20.80;90.10;;;;;;5057916;28;20033;-82
2023/10/02 15:22:39;;;;;;;57.95;17.90;;;20.80;89.80;;;;;;5054952;28;20024;-83
2023/10/02 15:25:06;;;;;;;46.35;15.73;;;20.70;89.90;;;;;;5063153;28;20031;-82
2023/10/02 15:27:31;;;;;;;62.75;19.50;;;20.70;89.70;;;;;;5056075;28;20064;-82
2023/10/02 15:29:57;;;;;;;65.32;17.92;;;20.70;89.70;;;;;;5040249;28;20029;-83
2023/10/02 15:32:22;;;;;;;52.38;17.08;;;20.70;90.00;;;;;;5059765;28;20025;-82
2023/10/02 15:34:48;;;;;;;55.45;18.17;;;20.70;90.10;;;;;;5055385;28;20068;-82
2023/10/02 15:37:15;;;;;;;55.35;17.08;;;20.60;90.10;;;;;;5055435;28;20033;-83
2023/10/02 15:39:41;;;;;;;62.72;19.55;;;20.60;90.10;;;;;;5062170;28;20100;-82
2023/10/02 15:42:07;;;;;;;51.22;16.00;;;20.60;90.20;;;;;;5053216;28;20037;-82
2023/10/02 15:44:40;;;;;;;53.17;16.48;;;20.60;90.30;;;;;;5054778;28;20105;-82
2023/10/02 15:47:06;;;;;;;59.58;18.58;;;20.60;90.30;;;;;;5064395;28;20055;-83
2023/10/02 15:49:31;;;;;;;43.05;15.68;;;20.50;90.20;;;;;;5053291;28;20449;-83
2023/10/02 15:51:59;;;;;;;50.35;15.88;;;20.50;90.30;;;;;;5060134;28;20424;-84
2023/10/02 15:54:25;;;;;;;61.05;18.60;;;20.50;90.10;;;;;;5058627;28;20036;-82
2023/10/02 15:56:51;;;;;;;52.45;17.35;;;20.60;90.00;;;;;;5052512;28;20029;-81
2023/10/02 15:59:21;;;;;;;64.25;17.60;;;20.60;90.00;;;;;;5055827;28;20055;-82
2023/10/02 16:01:47;;;;;;;55.92;17.85;;;20.60;90.20;;;;;;5058755;28;20037;-81
2023/10/02 16:04:13;;;;;;;57.35;16.88;;;20.50;90.30;;;;;;5053767;28;20094;-83
2023/10/02 16:06:41;;;;;;;55.33;16.77;;;20.50;90.40;;;;;;5055432;28;20083;-82
2023/10/02 16:09:08;;;;;;;54.57;15.90;;;20.60;90.50;;;;;;5056172;28;20091;-83
2023/10/02 16:11:34;;;;;;;61.97;17.33;;;20.40;90.60;;;;;;5052195;28;20279;-83
2023/10/02 16:13:59;;;;;;;50.78;15.80;;;20.40;90.70;;;;;;5058464;28;20036;-82
2023/10/02 16:16:25;;;;;;;50.85;15.60;;;20.40;90.80;;;;;;5059301;28;20037;-82
2023/10/02 16:18:51;;;;;;;55.50;16.58;;;20.40;90.90;;;;;;5054226;28;20484;-82
2023/10/02 16:21:21;;;;;;;52.28;16.35;;;20.40;90.90;;;;;;5052189;28;20037;-82
2023/10/02 16:23:48;;;;;;;54.92;17.38;;;20.90;91.10;;;;;;5058786;28;20053;-82
2023/10/02 16:26:18;;;;;;;52.25;17.60;;;20.40;91.10;;;;;;5056571;28;20115;-81
2023/10/02 16:28:46;;;;;;;59.95;17.52;;;20.30;91.10;;;;;;5058013;28;20082;-83
2023/10/02 16:31:16;;;;;;;49.35;16.58;;;20.30;91.20;;;;;;5057907;28;20025;-83
2023/10/02 16:33:43;;;;;;;57.05;17.13;;;20.30;91.20;;;;;;5052910;28;20052;-82
2023/10/02 16:36:20;;;;;;;50.08;16.17;;;20.70;91.40;;;;;;5056109;28;20493;-83
2023/10/02 16:38:50;;;;;;;53.35;16.73;;;20.20;91.30;;;;;;5054668;28;20079;-81
2023/10/02 16:41:16;;;;;;;51.58;16.40;;;20.20;91.40;;;;;;5055787;28;20449;-96
2023/10/02 16:43:43;;;;;;;52.25;17.83;;;20.20;91.50;;;;;;5042758;28;20552;-95
2023/10/02 16:46:17;;;;;;;57.80;17.90;;;20.10;91.50;;;;;;5041673;28;20075;-95
2023/10/02 16:48:43;;;;;;;61.35;17.38;;;20.10;91.40;;;;;;5039419;28;20385;-94